Search for airport 
image banner adimage banner adimage banner ad
image banner ad

IA90 - Humboldt County Memorial Hospital

Located in Humboldt, United States

ICAO - IA90, IATA -

Data provided by Airmate  

General information

Coordinates: N42°43'59" W94°13'52"
Elevation is 1102 feet MSL.
Magnetic variation is 04° East
View others Airports in Iowa

Operational data

Special qualification required
Current time UTC:
Current local time:
Weather at : KFOD - Fort Dodge Rgnl ( 20 km )
METAR: KFOD 292156Z AUTO 02008KT 9SM FEW032 30/22 A3006 RMK AO2 SLP195 T03000217
TAF: KFOD 292006Z 2920/3018 35005KT P6SM SCT029 FM300000 02010KT 5SM FU SCT150 FM301400 11004KT 6SM HZ SCT100
View NOTAMs / SUP AIP / TFR affecting this airport [VIEW]
Communications frequencies: [VIEW]

Runways:

Airport contact information

Address: Humboldt United States

Satellite view of IA90